Henderson, Tennessee
Current Conditions -  °F | °C
As of 6:53 PM on Friday 24 Oct 2014 (Local Time) from KMKL Reporting Station
Clear Clear  
Wind Chill: 60°   Ceiling: Unl
Heat Index: 60°   Visibility: 10mi
Dew Point: 53°   Wind: 5mph
Humidity: 78%   Direction: 260°W
Pressure: 30.08"   Gusts: NA
Location:  35.44°N, 88.64°W
Report Text: KMKL 242353Z AUTO 26004KT 10SM CLR 16/12 A3008 RMK AO2 SLP186 T01560117 10228 20156 53003
Loading
Personal Weather Stations






























Interactive Weather Map
Tropical Storm Tracking
New forecast layout! Learn more

10-Day Weather Forecast

Advertisements
Track Severe Weather on mobile